Time;durP1;ratioP1;P1;durP2;ratioP2;P2;SDS_P1;SDS_P2;PMS_P1;PMS_P2;Temp;Humidity;BMP_temperature;BMP_pressure;BME280_temperature;BME280_humidity;BME280_pressure;Samples;Min_cycle;Max_cycle;Signal;HPM_P1;HPM_P2
2021/10/14 00:01:07;;;;;;;8.20;6.53;;;9.00;1.00;;;;;;5092958;28;20206;-78
2021/10/14 00:03:34;;;;;;;9.40;6.10;;;9.00;1.00;;;;;;5092363;28;20251;-75
2021/10/14 00:06:01;;;;;;;7.17;6.40;;;8.90;1.00;;;;;;5064080;28;20669;-78
2021/10/14 00:08:28;;;;;;;11.43;7.30;;;9.00;1.00;;;;;;5093179;28;20209;-78
2021/10/14 00:10:55;;;;;;;9.43;5.93;;;9.00;1.00;;;;;;5092445;28;20201;-76
2021/10/14 00:13:22;;;;;;;10.70;6.63;;;8.90;1.00;;;;;;5092132;28;20767;-75
2021/10/14 00:15:50;;;;;;;8.50;5.67;;;8.90;1.00;;;;;;5091682;28;20232;-76
2021/10/14 00:18:18;;;;;;;8.57;6.20;;;8.90;1.00;;;;;;5092599;28;20251;-78
2021/10/14 00:20:45;;;;;;;8.57;6.83;;;8.70;1.00;;;;;;5091660;28;20206;-78
2021/10/14 00:23:13;;;;;;;10.27;6.17;;;8.60;1.00;;;;;;5092318;28;20709;-77
2021/10/14 00:25:40;;;;;;;9.07;6.83;;;8.60;1.00;;;;;;5091676;28;20676;-78
2021/10/14 00:28:07;;;;;;;9.10;6.00;;;8.70;1.00;;;;;;5077845;28;20198;-78
2021/10/14 00:30:34;;;;;;;11.40;6.43;;;8.70;1.00;;;;;;5092043;28;20205;-74
2021/10/14 00:33:03;;;;;;;5.63;5.07;;;8.70;1.00;;;;;;5092099;28;20258;-76
2021/10/14 00:35:30;;;;;;;8.60;6.20;;;8.50;1.00;;;;;;5091527;28;20225;-77
2021/10/14 00:37:57;;;;;;;8.77;6.20;;;8.50;1.00;;;;;;5092102;28;20220;-76
2021/10/14 00:40:24;;;;;;;7.67;5.80;;;8.50;1.00;;;;;;5092347;28;20204;-78
2021/10/14 00:42:52;;;;;;;9.50;6.40;;;8.60;1.00;;;;;;5091052;28;20262;-79
2021/10/14 00:45:19;;;;;;;9.80;6.20;;;8.60;1.00;;;;;;5091605;28;20720;-78
2021/10/14 00:47:46;;;;;;;8.47;5.80;;;8.60;1.00;;;;;;5091370;28;20213;-78
2021/10/14 00:50:14;;;;;;;9.73;7.57;;;8.60;1.00;;;;;;5091384;28;20209;-78
2021/10/14 00:52:42;;;;;;;8.50;7.17;;;8.50;1.00;;;;;;5091283;28;20259;-76
2021/10/14 00:55:12;;;;;;;11.33;7.03;;;8.40;1.00;;;;;;5091562;28;20233;-77
2021/10/14 00:57:40;;;;;;;12.93;6.80;;;8.40;1.00;;;;;;5091144;28;20744;-76
2021/10/14 01:00:08;;;;;;;9.47;7.67;;;8.40;1.00;;;;;;5091820;28;20205;-78
2021/10/14 01:02:35;;;;;;;10.57;7.10;;;8.30;1.00;;;;;;5090995;28;20730;-77
2021/10/14 01:05:03;;;;;;;7.03;6.33;;;8.10;1.00;;;;;;5091618;28;20262;-77
2021/10/14 01:07:31;;;;;;;6.73;6.07;;;8.20;1.00;;;;;;5090962;28;20587;-76
2021/10/14 01:09:58;;;;;;;8.73;6.10;;;8.30;1.00;;;;;;5091676;28;20623;-75
2021/10/14 01:12:27;;;;;;;6.90;6.17;;;8.30;1.00;;;;;;5091304;28;20669;-78
2021/10/14 01:14:54;;;;;;;9.27;5.70;;;8.40;1.00;;;;;;5091381;28;20202;-74
2021/10/14 01:17:21;;;;;;;9.57;6.10;;;8.30;1.00;;;;;;5090405;28;20205;-78
2021/10/14 01:19:49;;;;;;;9.87;6.10;;;8.20;1.00;;;;;;5090941;28;20255;-78
2021/10/14 01:22:16;;;;;;;7.13;5.37;;;8.30;1.00;;;;;;5091345;28;20205;-76
2021/10/14 01:24:46;;;;;;;6.63;5.57;;;8.30;1.00;;;;;;5076418;28;20260;-76
2021/10/14 01:27:13;;;;;;;10.77;5.70;;;8.30;1.00;;;;;;5090932;28;20693;-78
2021/10/14 01:29:40;;;;;;;7.43;5.53;;;8.20;1.00;;;;;;5090487;28;20685;-77
2021/10/14 01:32:07;;;;;;;7.93;5.63;;;8.10;1.00;;;;;;5090984;28;20214;-78
2021/10/14 01:34:34;;;;;;;6.70;5.07;;;8.20;1.00;;;;;;5090500;28;20266;-76
2021/10/14 01:37:03;;;;;;;6.97;5.43;;;8.10;1.00;;;;;;5090937;28;20293;-76
2021/10/14 01:39:30;;;;;;;7.60;4.70;;;8.10;1.00;;;;;;5089929;28;20201;-77
2021/10/14 01:41:57;;;;;;;8.00;4.63;;;8.10;1.00;;;;;;5091166;28;20202;-78
2021/10/14 01:44:24;;;;;;;5.00;4.47;;;8.10;1.00;;;;;;5091053;28;20208;-77
2021/10/14 01:46:51;;;;;;;6.53;5.43;;;8.10;1.00;;;;;;5090023;28;20673;-78
2021/10/14 01:49:18;;;;;;;7.03;5.10;;;8.10;1.00;;;;;;5087507;28;20267;-76
2021/10/14 01:51:45;;;;;;;6.90;4.70;;;8.00;1.00;;;;;;5069343;28;20205;-78
2021/10/14 01:54:14;;;;;;;7.27;5.37;;;7.90;1.00;;;;;;5070425;28;20259;-78
2021/10/14 01:56:41;;;;;;;6.30;4.77;;;8.00;1.00;;;;;;5070159;28;20238;-77
2021/10/14 01:59:08;;;;;;;6.70;4.83;;;8.00;1.00;;;;;;5070146;28;20205;-77
2021/10/14 02:01:35;;;;;;;8.20;5.27;;;8.00;1.00;;;;;;5069637;28;20214;-77
2021/10/14 02:04:03;;;;;;;6.93;4.93;;;8.10;1.00;;;;;;5070742;28;20206;-77
2021/10/14 02:06:30;;;;;;;7.57;5.97;;;8.00;1.00;;;;;;5070369;28;20275;-76
2021/10/14 02:08:57;;;;;;;6.13;4.73;;;7.90;1.00;;;;;;5070375;28;20202;-77
2021/10/14 02:11:25;;;;;;;7.53;5.30;;;7.90;1.00;;;;;;5070720;28;20206;-77
2021/10/14 02:13:52;;;;;;;9.43;5.07;;;7.90;1.00;;;;;;5070320;28;20202;-76
2021/10/14 02:16:19;;;;;;;6.47;5.00;;;7.90;1.00;;;;;;5070506;28;20230;-77
2021/10/14 02:18:46;;;;;;;7.93;4.83;;;7.90;1.00;;;;;;5069780;28;20732;-75
2021/10/14 02:21:15;;;;;;;6.33;5.13;;;7.90;1.00;;;;;;5070299;28;20210;-77
2021/10/14 02:23:42;;;;;;;7.03;4.70;;;7.90;1.00;;;;;;5069535;28;20297;-76
2021/10/14 02:26:09;;;;;;;5.77;4.47;;;7.80;1.00;;;;;;5070363;28;20202;-77
2021/10/14 02:28:37;;;;;;;7.67;5.33;;;7.80;1.00;;;;;;5071888;28;20213;-78
2021/10/14 02:31:04;;;;;;;6.87;4.67;;;7.70;1.00;;;;;;5074156;28;20248;-77
2021/10/14 02:33:31;;;;;;;5.33;4.10;;;7.80;1.00;;;;;;5074001;28;20206;-77
2021/10/14 02:35:59;;;;;;;9.43;5.20;;;7.70;1.00;;;;;;5074267;28;20226;-75
2021/10/14 02:38:26;;;;;;;7.40;5.13;;;7.70;1.00;;;;;;5073832;28;20222;-78
2021/10/14 02:40:53;;;;;;;8.40;4.87;;;7.70;1.00;;;;;;5073412;28;20202;-76
2021/10/14 02:43:19;;;;;;;8.23;4.70;;;7.50;1.00;;;;;;5073742;28;20202;-74
2021/10/14 02:45:48;;;;;;;5.43;4.70;;;7.30;1.00;;;;;;5073762;28;20251;-77
2021/10/14 02:48:15;;;;;;;7.83;4.40;;;7.40;1.00;;;;;;5073773;28;20202;-78
2021/10/14 02:50:42;;;;;;;7.73;4.90;;;7.50;1.00;;;;;;5073402;28;20728;-77
2021/10/14 02:53:09;;;;;;;7.30;5.27;;;7.50;1.00;;;;;;5073386;28;20202;-76
2021/10/14 02:55:36;;;;;;;7.43;5.57;;;7.40;1.00;;;;;;5073390;28;20233;-77
2021/10/14 02:58:03;;;;;;;6.13;4.90;;;7.50;1.00;;;;;;5073361;28;20213;-76
2021/10/14 03:00:30;;;;;;;8.73;4.70;;;7.40;1.00;;;;;;5073570;28;20198;-75
2021/10/14 03:02:58;;;;;;;9.33;6.07;;;7.40;1.00;;;;;;5073860;28;20210;-77
2021/10/14 03:05:26;;;;;;;8.57;5.37;;;7.40;1.00;;;;;;5074018;28;20619;-73
2021/10/14 03:07:53;;;;;;;6.40;4.53;;;7.40;1.00;;;;;;5072819;28;20206;-77
2021/10/14 03:10:19;;;;;;;9.50;5.80;;;7.40;1.00;;;;;;5073203;28;20210;-76
2021/10/14 03:12:46;;;;;;;6.90;4.87;;;7.50;1.00;;;;;;5073258;28;20248;-76
2021/10/14 03:15:13;;;;;;;9.70;5.33;;;7.40;1.00;;;;;;5072988;28;20233;-76
2021/10/14 03:17:40;;;;;;;6.47;5.47;;;7.40;1.00;;;;;;5072778;28;20267;-78
2021/10/14 03:20:10;;;;;;;6.53;5.07;;;7.40;1.00;;;;;;5073187;28;20202;-78
2021/10/14 03:22:37;;;;;;;6.90;3.93;;;7.40;1.00;;;;;;5072480;28;20582;-77
2021/10/14 03:25:04;;;;;;;6.77;5.10;;;7.40;1.00;;;;;;5073226;28;20251;-78
2021/10/14 03:27:31;;;;;;;6.10;5.27;;;7.30;1.00;;;;;;5072889;28;20206;-77
2021/10/14 03:29:58;;;;;;;7.97;4.83;;;7.30;1.00;;;;;;5073535;28;20272;-77
2021/10/14 03:32:25;;;;;;;6.67;5.50;;;7.20;1.00;;;;;;5073084;28;20633;-77
2021/10/14 03:34:52;;;;;;;6.87;5.37;;;7.10;1.00;;;;;;5072660;28;20698;-76
2021/10/14 03:37:21;;;;;;;6.00;5.30;;;7.10;1.00;;;;;;5072213;28;20296;-77
2021/10/14 03:39:48;;;;;;;6.47;4.53;;;7.10;1.00;;;;;;5071844;28;20263;-78
2021/10/14 03:42:16;;;;;;;9.20;5.37;;;7.20;1.00;;;;;;5072668;28;20210;-77
2021/10/14 03:44:43;;;;;;;8.90;5.60;;;7.10;1.00;;;;;;5072601;28;20198;-78
2021/10/14 03:47:10;;;;;;;7.33;5.40;;;7.20;1.00;;;;;;5072682;28;20210;-77
2021/10/14 03:49:37;;;;;;;6.23;4.37;;;7.20;1.00;;;;;;5072062;28;20259;-77
2021/10/14 03:52:04;;;;;;;7.57;5.97;;;7.10;1.00;;;;;;5072401;28;20670;-78
2021/10/14 03:54:32;;;;;;;9.27;6.37;;;7.20;1.00;;;;;;5072144;28;20206;-78
2021/10/14 03:56:59;;;;;;;7.77;6.17;;;7.20;1.00;;;;;;5072811;28;20311;-75
2021/10/14 03:59:26;;;;;;;10.20;5.70;;;7.10;1.00;;;;;;5072551;28;20716;-78
2021/10/14 04:01:53;;;;;;;5.90;5.23;;;7.10;1.00;;;;;;5072087;28;20252;-78
2021/10/14 04:04:21;;;;;;;6.80;5.37;;;7.10;1.00;;;;;;5072008;28;20210;-77
2021/10/14 04:06:49;;;;;;;7.87;5.50;;;7.10;1.00;;;;;;5072069;28;20614;-78
2021/10/14 04:09:16;;;;;;;5.83;4.97;;;7.10;1.00;;;;;;5072627;28;20301;-78
2021/10/14 04:11:44;;;;;;;11.67;5.87;;;7.10;1.00;;;;;;5071631;28;20206;-78
2021/10/14 04:14:11;;;;;;;7.07;5.07;;;7.10;1.00;;;;;;5072382;28;20202;-77
2021/10/14 04:16:38;;;;;;;5.30;4.57;;;7.10;1.00;;;;;;5071529;28;20230;-78
2021/10/14 04:19:06;;;;;;;7.57;4.93;;;7.00;1.00;;;;;;5071900;28;20206;-76
2021/10/14 04:21:34;;;;;;;6.50;5.60;;;6.90;1.00;;;;;;5071972;28;20217;-78
2021/10/14 04:24:01;;;;;;;5.17;4.10;;;6.80;1.00;;;;;;5072098;28;20210;-78
2021/10/14 04:26:29;;;;;;;6.67;4.83;;;6.70;1.00;;;;;;5072482;28;20202;-77
2021/10/14 04:28:57;;;;;;;8.90;5.30;;;6.80;1.00;;;;;;5072034;28;20260;-78
2021/10/14 04:31:24;;;;;;;6.07;4.87;;;6.90;1.00;;;;;;5071968;28;20263;-77
2021/10/14 04:33:51;;;;;;;7.27;5.17;;;6.80;1.00;;;;;;5070932;28;20217;-78
2021/10/14 04:36:19;;;;;;;5.20;4.70;;;6.90;1.00;;;;;;5072005;28;20276;-78
2021/10/14 04:38:46;;;;;;;6.93;5.03;;;6.80;1.00;;;;;;5071129;28;20245;-77
2021/10/14 04:41:13;;;;;;;6.70;5.20;;;6.70;1.00;;;;;;5071675;28;20202;-77
2021/10/14 04:43:40;;;;;;;7.70;4.63;;;6.70;1.00;;;;;;5071149;28;20259;-78
2021/10/14 04:46:08;;;;;;;6.97;4.30;;;6.70;1.00;;;;;;5071359;28;20556;-78
2021/10/14 04:48:35;;;;;;;8.87;5.77;;;6.70;1.00;;;;;;5070865;28;20206;-77
2021/10/14 04:51:02;;;;;;;6.53;4.37;;;6.70;1.00;;;;;;5071005;28;20203;-78
2021/10/14 04:53:29;;;;;;;9.27;5.10;;;6.70;1.00;;;;;;5070623;28;20578;-74
2021/10/14 04:55:56;;;;;;;7.37;5.37;;;6.70;1.00;;;;;;5071618;28;20267;-76
2021/10/14 04:58:23;;;;;;;6.80;4.87;;;6.70;1.00;;;;;;5071130;28;20207;-78
2021/10/14 05:00:50;;;;;;;6.57;4.33;;;6.80;1.00;;;;;;5070729;28;20260;-78
2021/10/14 05:03:19;;;;;;;6.57;4.27;;;6.80;1.00;;;;;;5070946;28;20199;-77
2021/10/14 05:05:46;;;;;;;7.80;4.47;;;6.60;1.00;;;;;;5070768;28;20293;-78
2021/10/14 05:08:14;;;;;;;7.20;4.60;;;6.50;1.00;;;;;;5071117;28;20245;-78
2021/10/14 05:10:41;;;;;;;7.13;5.13;;;6.50;1.00;;;;;;5070830;28;20206;-78
2021/10/14 05:13:08;;;;;;;6.17;5.07;;;6.40;1.00;;;;;;5071143;28;20205;-78
2021/10/14 05:15:36;;;;;;;7.20;5.27;;;6.40;1.00;;;;;;5070969;28;20371;-77
2021/10/14 05:18:03;;;;;;;9.67;6.60;;;6.40;1.00;;;;;;5070635;28;20287;-78
2021/10/14 05:20:31;;;;;;;9.57;6.57;;;6.40;1.00;;;;;;5070595;28;20289;-78
2021/10/14 05:22:59;;;;;;;7.33;5.67;;;6.40;1.00;;;;;;5071222;28;20210;-77
2021/10/14 05:25:26;;;;;;;5.17;4.67;;;6.50;1.00;;;;;;5071164;28;20209;-78
2021/10/14 05:27:53;;;;;;;8.80;4.93;;;6.50;1.00;;;;;;5070550;28;20207;-78
2021/10/14 05:30:21;;;;;;;11.87;5.83;;;6.50;1.00;;;;;;5070791;28;20259;-76
2021/10/14 05:32:48;;;;;;;6.30;4.67;;;6.50;1.00;;;;;;5070502;28;20264;-78
2021/10/14 05:35:15;;;;;;;10.07;5.83;;;6.40;1.00;;;;;;5070840;28;20256;-78
2021/10/14 05:37:43;;;;;;;5.60;5.00;;;6.50;1.00;;;;;;5070258;28;20307;-77
2021/10/14 05:40:10;;;;;;;6.30;4.83;;;6.50;1.00;;;;;;5070740;28;20202;-77
2021/10/14 05:42:37;;;;;;;6.97;4.53;;;6.40;1.00;;;;;;5069888;28;20735;-77
2021/10/14 05:45:05;;;;;;;9.80;5.10;;;6.50;1.00;;;;;;5070633;28;20578;-76
2021/10/14 05:47:32;;;;;;;6.57;5.43;;;6.50;1.00;;;;;;5069734;28;20206;-76
2021/10/14 05:49:59;;;;;;;10.70;5.03;;;6.50;1.00;;;;;;5070596;28;20256;-74
2021/10/14 05:52:26;;;;;;;9.93;5.53;;;6.50;1.00;;;;;;5070805;28;20293;-76
2021/10/14 05:54:55;;;;;;;8.40;5.87;;;6.40;1.00;;;;;;5070264;28;20252;-78
2021/10/14 05:57:22;;;;;;;6.83;5.03;;;6.30;1.00;;;;;;5070175;28;20248;-74
2021/10/14 05:59:49;;;;;;;6.93;5.20;;;6.40;1.00;;;;;;5070051;28;20279;-76
2021/10/14 06:02:16;;;;;;;9.93;5.93;;;6.40;1.00;;;;;;5069725;28;20657;-74
2021/10/14 06:04:43;;;;;;;7.80;5.90;;;6.40;1.00;;;;;;5069745;28;20673;-77
2021/10/14 06:07:10;;;;;;;6.77;5.13;;;6.40;1.00;;;;;;5070665;28;20210;-77
2021/10/14 06:09:37;;;;;;;7.67;5.10;;;6.40;1.00;;;;;;5070137;28;20744;-78
2021/10/14 06:12:06;;;;;;;10.77;7.03;;;6.40;1.00;;;;;;5070117;28;20206;-77
2021/10/14 06:14:33;;;;;;;26.53;20.20;;;6.40;1.00;;;;;;5069801;28;20674;-78
2021/10/14 06:17:00;;;;;;;8.70;6.77;;;6.50;1.00;;;;;;5069893;28;20218;-75
2021/10/14 06:19:27;;;;;;;8.13;6.53;;;6.40;1.00;;;;;;5070747;28;20255;-74
2021/10/14 06:21:54;;;;;;;11.23;6.50;;;6.30;1.00;;;;;;5070191;28;20214;-75
2021/10/14 06:24:21;;;;;;;8.13;5.60;;;6.40;1.00;;;;;;5070479;28;20206;-77
2021/10/14 06:26:48;;;;;;;8.73;5.97;;;6.20;1.00;;;;;;5069920;28;20256;-76
2021/10/14 06:29:16;;;;;;;7.97;5.20;;;6.30;1.00;;;;;;5070279;28;20634;-77
2021/10/14 06:31:43;;;;;;;7.43;5.30;;;6.40;1.00;;;;;;5069628;28;20256;-73
2021/10/14 06:34:10;;;;;;;13.10;5.90;;;6.50;1.00;;;;;;5069968;28;20727;-75
2021/10/14 06:36:37;;;;;;;26.57;14.90;;;6.60;1.00;;;;;;5069389;28;20258;-76
2021/10/14 06:39:04;;;;;;;25.13;13.90;;;6.60;1.00;;;;;;5070103;28;20248;-77
2021/10/14 06:41:31;;;;;;;14.80;9.27;;;6.70;1.00;;;;;;5069687;28;20206;-77
2021/10/14 06:43:59;;;;;;;9.43;6.53;;;6.70;1.00;;;;;;5069775;28;20210;-70
2021/10/14 06:46:27;;;;;;;19.57;12.70;;;6.80;1.00;;;;;;5070196;28;20202;-74
2021/10/14 06:48:54;;;;;;;18.83;12.60;;;6.80;1.00;;;;;;5069845;28;20217;-75
2021/10/14 06:51:21;;;;;;;18.03;9.30;;;6.80;1.00;;;;;;5070327;28;20203;-77
2021/10/14 06:53:48;;;;;;;16.73;9.67;;;7.00;1.00;;;;;;5069764;28;20661;-72
2021/10/14 06:56:15;;;;;;;19.17;8.47;;;7.10;1.00;;;;;;5069829;28;20206;-76
2021/10/14 06:58:42;;;;;;;13.37;9.20;;;7.20;1.00;;;;;;5069282;28;20283;-69
2021/10/14 07:01:09;;;;;;;13.90;7.67;;;7.40;1.00;;;;;;5070060;28;20206;-75
2021/10/14 07:03:38;;;;;;;11.07;6.40;;;7.30;1.00;;;;;;5069395;28;20210;-76
2021/10/14 07:06:05;;;;;;;14.27;8.00;;;7.30;1.00;;;;;;5069810;28;20206;-76
2021/10/14 07:08:32;;;;;;;14.53;7.00;;;7.10;1.00;;;;;;5069071;28;20206;-69
2021/10/14 07:10:59;;;;;;;15.67;7.27;;;7.20;1.00;;;;;;5070206;28;20209;-70
2021/10/14 07:13:26;;;;;;;13.90;7.60;;;7.50;1.00;;;;;;5069648;28;20620;-69
2021/10/14 07:15:53;;;;;;;11.63;7.23;;;7.70;1.00;;;;;;5071614;28;20252;-70
2021/10/14 07:18:20;;;;;;;11.70;6.90;;;7.90;1.00;;;;;;5072786;28;20279;-75
2021/10/14 07:20:48;;;;;;;12.83;7.43;;;8.00;1.00;;;;;;5073200;28;20259;-71
2021/10/14 07:23:16;;;;;;;13.97;7.13;;;8.00;1.00;;;;;;5073415;28;20206;-72
2021/10/14 07:25:44;;;;;;;9.27;6.67;;;8.10;1.00;;;;;;5072535;28;20212;-69
2021/10/14 07:28:12;;;;;;;9.90;7.00;;;8.20;1.00;;;;;;5073039;28;20206;-76
2021/10/14 07:30:41;;;;;;;9.63;7.07;;;8.30;1.00;;;;;;5072380;28;20206;-69
2021/10/14 07:33:07;;;;;;;9.53;5.90;;;8.30;1.00;;;;;;5073263;28;20239;-69
2021/10/14 07:35:36;;;;;;;8.70;6.77;;;8.30;1.00;;;;;;5072271;28;20320;-69
2021/10/14 07:38:09;;;;;;;10.20;7.07;;;8.50;1.00;;;;;;5072639;28;20279;-76
2021/10/14 07:40:39;;;;;;;8.80;6.47;;;8.60;1.00;;;;;;5072476;28;20214;-69
2021/10/14 07:43:06;;;;;;;11.17;6.37;;;8.80;1.00;;;;;;5072710;28;20218;-70
2021/10/14 07:45:33;;;;;;;9.93;7.03;;;8.80;1.00;;;;;;5072530;28;20214;-69
2021/10/14 07:48:01;;;;;;;9.67;6.77;;;8.80;1.00;;;;;;5073101;28;20214;-68
2021/10/14 07:50:28;;;;;;;8.80;6.10;;;8.70;1.00;;;;;;5073231;28;20202;-70
2021/10/14 07:52:55;;;;;;;17.40;6.50;;;8.60;1.00;;;;;;5072708;28;20207;-77
2021/10/14 07:55:24;;;;;;;9.90;6.13;;;8.70;1.00;;;;;;5072464;28;20264;-77
2021/10/14 07:57:51;;;;;;;9.77;6.83;;;8.90;1.00;;;;;;5071668;28;20230;-74
2021/10/14 08:00:18;;;;;;;10.47;6.03;;;9.50;1.00;;;;;;5072523;28;20731;-72
2021/10/14 08:02:45;;;;;;;8.00;6.40;;;9.20;1.00;;;;;;5072335;28;20255;-74
2021/10/14 08:05:12;;;;;;;7.87;6.30;;;9.40;1.00;;;;;;5072377;28;20259;-70
2021/10/14 08:07:40;;;;;;;10.20;6.20;;;9.40;1.00;;;;;;5072093;28;20267;-72
2021/10/14 08:10:08;;;;;;;9.30;6.03;;;9.50;1.00;;;;;;5072276;28;20202;-70
2021/10/14 08:12:36;;;;;;;11.33;6.80;;;9.50;1.00;;;;;;5071946;28;20206;-77
2021/10/14 08:15:04;;;;;;;7.97;6.40;;;9.50;1.00;;;;;;5072086;28;20626;-70
2021/10/14 08:17:31;;;;;;;13.47;7.67;;;9.60;1.00;;;;;;5071839;28;20598;-76
2021/10/14 08:19:59;;;;;;;10.80;6.87;;;9.70;1.00;;;;;;5072443;28;20272;-78
2021/10/14 08:22:26;;;;;;;8.73;6.43;;;9.90;1.00;;;;;;5072303;28;20198;-73
2021/10/14 08:24:55;;;;;;;12.33;7.03;;;9.90;1.00;;;;;;5071514;28;20731;-70
2021/10/14 08:27:22;;;;;;;15.93;7.77;;;10.10;1.00;;;;;;5071392;28;20210;-73
2021/10/14 08:29:51;;;;;;;12.67;6.63;;;10.30;1.00;;;;;;5071600;28;20264;-70
2021/10/14 08:32:18;;;;;;;10.27;6.90;;;10.50;1.00;;;;;;5071602;28;20279;-76
2021/10/14 08:34:45;;;;;;;11.03;7.30;;;10.40;1.00;;;;;;5071625;28;20631;-76
2021/10/14 08:37:12;;;;;;;7.93;6.40;;;10.40;1.00;;;;;;5071104;28;20214;-76
2021/10/14 08:39:39;;;;;;;8.30;6.73;;;10.40;1.00;;;;;;5071314;28;20237;-70
2021/10/14 08:42:06;;;;;;;13.87;8.10;;;10.30;1.00;;;;;;5071572;28;20256;-73
2021/10/14 08:44:33;;;;;;;7.67;6.90;;;10.60;1.00;;;;;;5071246;28;20244;-70
2021/10/14 08:47:02;;;;;;;10.87;7.43;;;10.70;1.00;;;;;;5071894;28;20217;-70
2021/10/14 08:49:30;;;;;;;10.73;7.53;;;11.10;1.00;;;;;;5071368;28;20681;-71
2021/10/14 08:51:57;;;;;;;13.57;7.37;;;11.10;1.00;;;;;;5071706;28;20293;-70
2021/10/14 08:54:24;;;;;;;13.13;7.87;;;11.20;1.00;;;;;;5070905;28;20696;-70
2021/10/14 08:56:51;;;;;;;8.80;7.13;;;11.40;1.00;;;;;;5071306;28;20228;-77
2021/10/14 08:59:19;;;;;;;10.77;6.83;;;11.60;1.00;;;;;;5071299;28;20310;-71
2021/10/14 09:02:15;;;;;;;10.47;7.77;;;11.30;1.00;;;;;;5070803;28;20686;-70
2021/10/14 09:04:42;;;;;;;10.47;7.70;;;11.40;1.00;;;;;;5070819;28;20210;-74
2021/10/14 09:07:10;;;;;;;8.97;7.00;;;11.60;1.00;;;;;;5071555;28;20248;-70
2021/10/14 09:09:38;;;;;;;9.60;6.63;;;11.90;1.00;;;;;;5070642;28;20678;-70
2021/10/14 09:12:06;;;;;;;6.53;5.93;;;12.00;1.00;;;;;;5071000;28;20309;-73
2021/10/14 09:14:34;;;;;;;10.10;7.83;;;11.90;1.00;;;;;;5070599;28;20674;-70
2021/10/14 09:17:01;;;;;;;12.23;8.13;;;11.90;1.00;;;;;;5070627;28;20202;-71
2021/10/14 09:19:30;;;;;;;9.23;6.30;;;12.10;1.00;;;;;;5071519;28;20238;-70
2021/10/14 09:21:59;;;;;;;10.57;7.17;;;11.80;1.00;;;;;;5071297;28;20206;-75
2021/10/14 09:24:32;;;;;;;12.83;6.97;;;11.90;1.00;;;;;;5070846;28;20214;-72
2021/10/14 09:27:00;;;;;;;9.20;5.77;;;12.30;1.00;;;;;;5070983;28;20273;-70
2021/10/14 09:29:28;;;;;;;8.87;6.67;;;12.60;1.00;;;;;;5071035;28;20252;-76
2021/10/14 09:31:58;;;;;;;9.10;7.47;;;12.70;1.00;;;;;;5071167;28;20202;-71
2021/10/14 09:34:33;;;;;;;10.03;6.70;;;12.60;99.90;;;;;;5070951;28;20210;-76
2021/10/14 09:37:02;;;;;;;10.13;7.83;;;12.90;1.00;;;;;;5070096;28;20263;-73
2021/10/14 09:39:30;;;;;;;10.63;7.70;;;13.30;99.90;;;;;;5069865;28;20275;-71
2021/10/14 09:41:58;;;;;;;11.03;8.90;;;13.40;99.90;;;;;;5070874;28;20634;-70
2021/10/14 09:44:25;;;;;;;12.82;8.98;;;13.50;99.90;;;;;;5070862;28;20206;-74
2021/10/14 09:46:54;;;;;;;9.20;7.97;;;13.60;99.90;;;;;;5070531;28;20233;-69
2021/10/14 09:49:23;;;;;;;8.38;7.40;;;13.90;99.90;;;;;;5070596;28;20206;-74
2021/10/14 09:51:52;;;;;;;14.13;8.93;;;14.10;99.90;;;;;;5070163;28;20297;-76
2021/10/14 09:54:19;;;;;;;12.10;8.70;;;14.40;99.90;;;;;;5070440;28;20649;-71
2021/10/14 09:56:46;;;;;;;10.40;8.82;;;14.90;99.90;;;;;;5070077;28;20210;-70
2021/10/14 09:59:13;;;;;;;12.63;9.00;;;15.60;99.90;;;;;;5070145;28;20238;-70
2021/10/14 10:01:42;;;;;;;10.80;8.65;;;17.20;99.90;;;;;;5070114;28;20202;-70
2021/10/14 10:04:10;;;;;;;8.73;7.55;;;16.10;99.90;;;;;;5070548;28;20218;-69
2021/10/14 10:06:38;;;;;;;12.15;8.13;;;16.30;99.90;;;;;;5069775;28;20301;-69
2021/10/14 10:09:14;;;;;;;8.98;7.68;;;17.20;99.90;;;;;;5070366;28;20206;-69
2021/10/14 10:11:44;;;;;;;10.38;7.65;;;17.30;99.90;;;;;;5069804;28;20279;-76
2021/10/14 10:14:11;;;;;;;10.00;7.57;;;17.30;99.90;;;;;;5070247;28;20618;-74
2021/10/14 10:16:53;;;;;;;10.75;8.43;;;15.90;99.90;;;;;;5069969;28;20259;-69
2021/10/14 10:19:40;;;;;;;9.90;7.38;;;15.50;99.90;;;;;;5070125;28;20280;-69
2021/10/14 10:22:07;;;;;;;10.95;7.85;;;15.30;99.90;;;;;;5070001;28;20335;-69
2021/10/14 10:24:35;;;;;;;8.90;6.65;;;15.20;99.90;;;;;;5070147;28;20202;-69
2021/10/14 10:27:04;;;;;;;9.68;7.22;;;15.00;99.90;;;;;;5069892;28;20682;-68
2021/10/14 10:29:42;;;;;;;8.07;7.10;;;15.00;99.90;;;;;;5069867;28;20632;-69
2021/10/14 10:32:23;;;;;;;9.60;7.22;;;15.20;99.90;;;;;;5069854;28;20665;-68
2021/10/14 10:35:09;;;;;;;7.82;7.03;;;15.40;99.90;;;;;;5069992;28;20202;-68
2021/10/14 10:37:43;;;;;;;11.40;6.95;;;15.30;99.90;;;;;;5069243;28;20214;-76
2021/10/14 10:40:21;;;;;;;7.78;6.43;;;15.20;99.90;;;;;;5069979;28;20214;-74
2021/10/14 10:42:58;;;;;;;10.95;8.23;;;15.40;99.90;;;;;;5069829;28;20209;-69
2021/10/14 10:45:26;;;;;;;9.32;7.40;;;15.50;99.90;;;;;;5070500;28;20202;-69
2021/10/14 10:47:58;;;;;;;8.48;6.47;;;15.50;99.90;;;;;;5056001;28;20255;-69
2021/10/14 10:50:43;;;;;;;9.80;7.03;;;15.50;99.90;;;;;;5073331;28;20210;-69
2021/10/14 10:53:12;;;;;;;6.93;4.88;;;15.80;99.90;;;;;;5073660;28;20613;-73
2021/10/14 10:55:43;;;;;;;7.00;5.57;;;15.90;99.90;;;;;;5073215;28;20625;-72
2021/10/14 10:58:12;;;;;;;7.63;5.53;;;16.00;99.90;;;;;;5060171;28;20307;-69
2021/10/14 11:00:41;;;;;;;8.32;5.78;;;16.10;99.90;;;;;;5073185;28;20623;-75
2021/10/14 11:03:14;;;;;;;6.90;4.10;;;16.10;99.90;;;;;;5073147;28;20214;-69
2021/10/14 11:05:43;;;;;;;6.80;4.60;;;16.00;99.90;;;;;;5073139;28;20619;-69
2021/10/14 11:08:10;;;;;;;6.95;4.15;;;16.20;99.90;;;;;;5073469;28;20264;-69
2021/10/14 11:10:37;;;;;;;4.80;3.67;;;16.50;99.90;;;;;;5073310;28;20202;-69
2021/10/14 11:13:06;;;;;;;5.05;3.65;;;16.50;99.90;;;;;;5073297;28;20210;-69
2021/10/14 11:15:33;;;;;;;5.45;3.53;;;16.70;99.90;;;;;;5072852;28;20644;-69
2021/10/14 11:18:05;;;;;;;14.43;6.68;;;16.70;99.90;;;;;;5073459;28;20610;-75
2021/10/14 11:20:32;;;;;;;8.60;4.50;;;16.70;99.90;;;;;;5072385;28;20202;-70
2021/10/14 11:23:04;;;;;;;13.65;5.25;;;16.80;99.90;;;;;;5073537;28;20255;-69
2021/10/14 11:25:32;;;;;;;19.15;10.98;;;17.10;99.90;;;;;;5072683;28;20207;-74
2021/10/14 11:28:03;;;;;;;3.08;2.78;;;17.30;99.90;;;;;;5073612;28;20324;-69
2021/10/14 11:30:41;;;;;;;2.95;2.20;;;17.50;99.90;;;;;;5072673;28;20209;-79
2021/10/14 11:33:13;;;;;;;4.65;2.70;;;17.60;99.90;;;;;;5073306;28;20212;-73
2021/10/14 11:35:41;;;;;;;6.07;3.08;;;17.60;99.90;;;;;;5072334;28;20205;-75
2021/10/14 11:38:10;;;;;;;5.43;2.78;;;18.00;99.90;;;;;;5072907;28;20225;-76
2021/10/14 11:40:39;;;;;;;5.03;3.20;;;18.10;99.90;;;;;;5072308;28;20259;-72
2021/10/14 11:43:06;;;;;;;3.15;2.17;;;18.10;99.90;;;;;;5072864;28;20247;-75
2021/10/14 11:45:33;;;;;;;5.18;2.58;;;18.20;99.90;;;;;;5072546;28;20210;-75
2021/10/14 11:48:01;;;;;;;2.20;1.20;;;18.30;99.90;;;;;;5072485;28;20608;-75
2021/10/14 11:50:32;;;;;;;1.15;1.05;;;18.40;99.90;;;;;;5073351;28;20206;-72
2021/10/14 11:53:03;;;;;;;1.42;0.98;;;18.50;99.90;;;;;;5072709;28;20689;-70
2021/10/14 11:55:31;;;;;;;3.08;2.25;;;18.70;99.90;;;;;;5072119;28;20210;-71
2021/10/14 11:57:59;;;;;;;3.00;2.00;;;18.60;99.90;;;;;;5072750;28;20202;-71
2021/10/14 12:00:28;;;;;;;1.40;0.93;;;18.60;99.90;;;;;;5072187;28;20291;-75
2021/10/14 12:02:57;;;;;;;1.17;0.90;;;18.60;99.90;;;;;;5072727;28;20202;-76
2021/10/14 12:05:25;;;;;;;2.88;1.33;;;18.60;99.90;;;;;;5072656;28;20209;-71
2021/10/14 12:07:56;;;;;;;3.40;1.42;;;18.70;99.90;;;;;;5072001;28;20214;-74
2021/10/14 12:10:35;;;;;;;4.35;1.70;;;18.80;99.90;;;;;;5072652;28;20202;-72
2021/10/14 12:13:04;;;;;;;1.77;1.52;;;18.70;99.90;;;;;;5072279;28;20289;-74
2021/10/14 12:15:31;;;;;;;1.58;1.13;;;19.00;99.90;;;;;;5071536;28;20202;-74
2021/10/14 12:17:58;;;;;;;2.10;1.25;;;19.10;99.90;;;;;;5072358;28;20210;-77
2021/10/14 12:20:28;;;;;;;3.63;1.50;;;19.20;99.90;;;;;;5072049;28;20225;-75
2021/10/14 12:22:56;;;;;;;1.50;0.80;;;19.30;99.90;;;;;;5072660;28;20263;-74
2021/10/14 12:25:26;;;;;;;0.77;0.77;;;19.20;99.90;;;;;;5071746;28;20206;-74
2021/10/14 12:27:55;;;;;;;1.23;1.13;;;19.30;99.90;;;;;;5071917;28;20260;-74
2021/10/14 12:30:27;;;;;;;2.08;1.23;;;19.30;99.90;;;;;;5071935;28;20209;-78
2021/10/14 12:32:56;;;;;;;3.60;1.05;;;19.30;99.90;;;;;;5071928;28;20255;-73
2021/10/14 12:35:26;;;;;;;1.42;1.13;;;19.40;99.90;;;;;;5071829;28;20256;-74
2021/10/14 12:38:08;;;;;;;1.40;1.05;;;19.40;99.90;;;;;;5071528;28;20221;-71
2021/10/14 12:40:42;;;;;;;4.22;1.70;;;19.50;99.90;;;;;;5071237;28;20303;-71
2021/10/14 12:43:16;;;;;;;1.10;0.80;;;19.50;99.90;;;;;;5071607;28;20217;-71
2021/10/14 12:48:35;;;;;;;1.63;1.23;;;19.60;99.90;;;;;;5071683;28;20644;-77
2021/10/14 12:51:10;;;;;;;0.75;0.75;;;19.70;99.90;;;;;;5071533;28;20202;-70
2021/10/14 12:53:39;;;;;;;2.17;1.27;;;19.70;99.90;;;;;;5071035;28;20259;-72
2021/10/14 12:56:06;;;;;;;0.57;0.57;;;19.80;99.90;;;;;;5071060;28;20231;-72
2021/10/14 12:58:33;;;;;;;0.60;0.60;;;19.80;99.90;;;;;;5070680;28;20267;-74
2021/10/14 13:01:02;;;;;;;1.00;0.80;;;19.80;99.90;;;;;;5071234;28;20251;-72
2021/10/14 13:03:29;;;;;;;2.38;0.85;;;19.90;99.90;;;;;;5071368;28;20635;-70
2021/10/14 13:05:56;;;;;;;1.48;1.02;;;19.80;99.90;;;;;;5071527;28;20206;-73